sensor_id;sensor_type;location;lat;lon;timestamp;temperature;humidity
3846;DHT22;1938;50.812;7.738;2024-03-23T00:55:44;7.40;99.90
3846;DHT22;1938;50.812;7.738;2024-03-23T00:58:10;7.40;99.90
3846;DHT22;1938;50.812;7.738;2024-03-23T01:00:36;7.40;99.90
3846;DHT22;1938;50.812;7.738;2024-03-23T01:03:02;7.30;99.90
3846;DHT22;1938;50.812;7.738;2024-03-23T01:05:27;7.30;99.90
3846;DHT22;1938;50.812;7.738;2024-03-23T01:07:53;7.20;99.90
3846;DHT22;1938;50.812;7.738;2024-03-23T01:10:18;7.10;99.90
3846;DHT22;1938;50.812;7.738;2024-03-23T01:12:44;7.10;99.90
3846;DHT22;1938;50.812;7.738;2024-03-23T01:15:10;7.10;99.90
3846;DHT22;1938;50.812;7.738;2024-03-23T01:17:36;7.10;99.90
3846;DHT22;1938;50.812;7.738;2024-03-23T01:20:02;7.00;99.90
3846;DHT22;1938;50.812;7.738;2024-03-23T01:22:29;6.90;99.90
3846;DHT22;1938;50.812;7.738;2024-03-23T01:24:54;6.90;99.90
3846;DHT22;1938;50.812;7.738;2024-03-23T01:27:20;6.80;99.90
3846;DHT22;1938;50.812;7.738;2024-03-23T01:29:45;6.80;99.90
3846;DHT22;1938;50.812;7.738;2024-03-23T01:32:11;6.60;99.90
3846;DHT22;1938;50.812;7.738;2024-03-23T01:34:36;6.50;99.90
3846;DHT22;1938;50.812;7.738;2024-03-23T01:37:03;6.40;99.90
3846;DHT22;1938;50.812;7.738;2024-03-23T01:39:28;6.30;99.90
3846;DHT22;1938;50.812;7.738;2024-03-23T01:41:54;6.20;99.90
3846;DHT22;1938;50.812;7.738;2024-03-23T01:44:19;6.20;99.90
3846;DHT22;1938;50.812;7.738;2024-03-23T01:46:45;6.10;99.90
3846;DHT22;1938;50.812;7.738;2024-03-23T01:49:10;6.10;99.90
3846;DHT22;1938;50.812;7.738;2024-03-23T01:51:38;6.10;99.90
3846;DHT22;1938;50.812;7.738;2024-03-23T01:54:04;6.00;99.90
3846;DHT22;1938;50.812;7.738;2024-03-23T01:56:33;6.00;99.90
3846;DHT22;1938;50.812;7.738;2024-03-23T01:59:04;6.10;99.90
3846;DHT22;1938;50.812;7.738;2024-03-23T02:01:29;6.00;99.90
3846;DHT22;1938;50.812;7.738;2024-03-23T02:03:55;5.90;99.90
3846;DHT22;1938;50.812;7.738;2024-03-23T02:06:22;5.90;99.90
3846;DHT22;1938;50.812;7.738;2024-03-23T02:08:48;5.90;99.90
3846;DHT22;1938;50.812;7.738;2024-03-23T02:11:14;5.90;99.90
3846;DHT22;1938;50.812;7.738;2024-03-23T02:13:40;5.80;99.90
3846;DHT22;1938;50.812;7.738;2024-03-23T02:16:06;5.80;99.90
3846;DHT22;1938;50.812;7.738;2024-03-23T02:18:32;5.80;99.90
3846;DHT22;1938;50.812;7.738;2024-03-23T02:20:58;5.80;99.90
3846;DHT22;1938;50.812;7.738;2024-03-23T02:23:23;5.80;99.90
3846;DHT22;1938;50.812;7.738;2024-03-23T02:25:50;5.80;99.90
3846;DHT22;1938;50.812;7.738;2024-03-23T02:28:15;5.80;99.90
3846;DHT22;1938;50.812;7.738;2024-03-23T02:30:42;5.80;99.90
3846;DHT22;1938;50.812;7.738;2024-03-23T02:33:08;5.70;99.90
3846;DHT22;1938;50.812;7.738;2024-03-23T02:35:34;5.70;99.90
3846;DHT22;1938;50.812;7.738;2024-03-23T02:38:00;5.80;99.90
3846;DHT22;1938;50.812;7.738;2024-03-23T02:40:26;5.70;99.90
3846;DHT22;1938;50.812;7.738;2024-03-23T02:42:52;5.70;99.90
3846;DHT22;1938;50.812;7.738;2024-03-23T02:45:17;5.70;99.90
3846;DHT22;1938;50.812;7.738;2024-03-23T02:47:43;5.70;99.90
3846;DHT22;1938;50.812;7.738;2024-03-23T02:50:09;5.70;99.90
3846;DHT22;1938;50.812;7.738;2024-03-23T02:52:35;5.60;99.90
3846;DHT22;1938;50.812;7.738;2024-03-23T02:55:02;5.50;99.90
3846;DHT22;1938;50.812;7.738;2024-03-23T02:57:28;5.50;99.90
3846;DHT22;1938;50.812;7.738;2024-03-23T02:59:54;5.50;99.90
3846;DHT22;1938;50.812;7.738;2024-03-23T03:02:20;5.50;99.90
3846;DHT22;1938;50.812;7.738;2024-03-23T03:04:46;5.50;99.90
3846;DHT22;1938;50.812;7.738;2024-03-23T03:07:13;5.50;99.90
3846;DHT22;1938;50.812;7.738;2024-03-23T03:09:38;5.40;99.90
3846;DHT22;1938;50.812;7.738;2024-03-23T03:12:05;5.50;99.90
3846;DHT22;1938;50.812;7.738;2024-03-23T03:14:31;5.50;99.90
3846;DHT22;1938;50.812;7.738;2024-03-23T03:16:56;5.50;99.90
3846;DHT22;1938;50.812;7.738;2024-03-23T03:19:23;5.50;99.90
3846;DHT22;1938;50.812;7.738;2024-03-23T03:21:48;5.40;99.90
3846;DHT22;1938;50.812;7.738;2024-03-23T03:24:14;5.40;99.90
3846;DHT22;1938;50.812;7.738;2024-03-23T03:26:41;5.40;99.90
3846;DHT22;1938;50.812;7.738;2024-03-23T03:29:06;5.40;99.90
3846;DHT22;1938;50.812;7.738;2024-03-23T03:31:32;5.40;99.90
3846;DHT22;1938;50.812;7.738;2024-03-23T03:33:58;5.30;99.90
3846;DHT22;1938;50.812;7.738;2024-03-23T03:36:24;5.20;99.90
3846;DHT22;1938;50.812;7.738;2024-03-23T03:38:50;5.10;99.90
3846;DHT22;1938;50.812;7.738;2024-03-23T03:41:15;5.10;99.90
3846;DHT22;1938;50.812;7.738;2024-03-23T03:43:41;5.00;99.90
3846;DHT22;1938;50.812;7.738;2024-03-23T03:46:06;4.90;99.90
3846;DHT22;1938;50.812;7.738;2024-03-23T03:48:33;4.90;99.90
3846;DHT22;1938;50.812;7.738;2024-03-23T03:50:59;4.90;99.90
3846;DHT22;1938;50.812;7.738;2024-03-23T03:53:26;4.80;99.90
3846;DHT22;1938;50.812;7.738;2024-03-23T03:55:52;4.80;99.90
3846;DHT22;1938;50.812;7.738;2024-03-23T03:58:17;4.70;99.90
3846;DHT22;1938;50.812;7.738;2024-03-23T04:00:43;4.60;99.90
3846;DHT22;1938;50.812;7.738;2024-03-23T04:03:09;4.60;99.90
3846;DHT22;1938;50.812;7.738;2024-03-23T04:05:35;4.40;99.90
3846;DHT22;1938;50.812;7.738;2024-03-23T04:08:01;4.40;99.90
3846;DHT22;1938;50.812;7.738;2024-03-23T04:10:26;4.40;99.90
3846;DHT22;1938;50.812;7.738;2024-03-23T04:12:52;4.30;99.90
3846;DHT22;1938;50.812;7.738;2024-03-23T04:15:19;4.20;99.90
3846;DHT22;1938;50.812;7.738;2024-03-23T04:17:45;4.10;99.90
3846;DHT22;1938;50.812;7.738;2024-03-23T04:20:11;4.00;99.90
3846;DHT22;1938;50.812;7.738;2024-03-23T04:22:39;3.90;99.90
3846;DHT22;1938;50.812;7.738;2024-03-23T04:25:05;3.90;99.90
3846;DHT22;1938;50.812;7.738;2024-03-23T04:27:39;3.90;99.90
3846;DHT22;1938;50.812;7.738;2024-03-23T04:30:06;3.90;99.90
3846;DHT22;1938;50.812;7.738;2024-03-23T04:32:37;3.90;99.90
3846;DHT22;1938;50.812;7.738;2024-03-23T04:35:02;3.90;99.90
3846;DHT22;1938;50.812;7.738;2024-03-23T04:37:32;3.70;99.90
3846;DHT22;1938;50.812;7.738;2024-03-23T04:39:59;3.80;99.90
3846;DHT22;1938;50.812;7.738;2024-03-23T04:42:25;3.80;99.90
3846;DHT22;1938;50.812;7.738;2024-03-23T04:44:50;3.60;99.90
3846;DHT22;1938;50.812;7.738;2024-03-23T04:47:16;3.50;99.90
3846;DHT22;1938;50.812;7.738;2024-03-23T04:49:43;3.40;99.90
3846;DHT22;1938;50.812;7.738;2024-03-23T04:52:08;3.40;99.90
3846;DHT22;1938;50.812;7.738;2024-03-23T04:54:34;3.40;99.90
3846;DHT22;1938;50.812;7.738;2024-03-23T04:56:59;3.30;99.90
3846;DHT22;1938;50.812;7.738;2024-03-23T04:59:25;3.30;99.90
3846;DHT22;1938;50.812;7.738;2024-03-23T05:01:50;3.30;99.90
3846;DHT22;1938;50.812;7.738;2024-03-23T05:04:17;3.30;99.90
3846;DHT22;1938;50.812;7.738;2024-03-23T05:06:43;3.20;99.90
3846;DHT22;1938;50.812;7.738;2024-03-23T05:09:08;3.20;99.90
3846;DHT22;1938;50.812;7.738;2024-03-23T05:11:40;3.20;99.90
3846;DHT22;1938;50.812;7.738;2024-03-23T05:14:07;3.10;99.90
3846;DHT22;1938;50.812;7.738;2024-03-23T05:16:32;3.10;99.90
3846;DHT22;1938;50.812;7.738;2024-03-23T05:18:58;3.00;99.90
3846;DHT22;1938;50.812;7.738;2024-03-23T05:21:24;3.00;99.90
3846;DHT22;1938;50.812;7.738;2024-03-23T05:23:50;3.00;99.90
3846;DHT22;1938;50.812;7.738;2024-03-23T05:26:17;3.00;99.90
3846;DHT22;1938;50.812;7.738;2024-03-23T05:28:42;3.00;99.90
3846;DHT22;1938;50.812;7.738;2024-03-23T05:31:08;3.00;99.90
3846;DHT22;1938;50.812;7.738;2024-03-23T05:33:36;3.00;99.90
3846;DHT22;1938;50.812;7.738;2024-03-23T05:36:03;3.00;99.90
3846;DHT22;1938;50.812;7.738;2024-03-23T05:38:30;3.00;99.90
3846;DHT22;1938;50.812;7.738;2024-03-23T05:41:00;3.00;99.90
3846;DHT22;1938;50.812;7.738;2024-03-23T05:43:26;3.00;99.90
3846;DHT22;1938;50.812;7.738;2024-03-23T05:45:59;3.00;99.90
3846;DHT22;1938;50.812;7.738;2024-03-23T05:48:28;3.00;99.90
3846;DHT22;1938;50.812;7.738;2024-03-23T05:50:55;3.10;99.90
3846;DHT22;1938;50.812;7.738;2024-03-23T05:53:21;3.00;99.90
3846;DHT22;1938;50.812;7.738;2024-03-23T05:55:46;3.10;99.90
3846;DHT22;1938;50.812;7.738;2024-03-23T05:58:16;3.10;99.90
3846;DHT22;1938;50.812;7.738;2024-03-23T06:00:43;3.00;99.90
3846;DHT22;1938;50.812;7.738;2024-03-23T06:03:09;3.10;99.90
3846;DHT22;1938;50.812;7.738;2024-03-23T06:05:38;3.10;99.90
3846;DHT22;1938;50.812;7.738;2024-03-23T06:08:04;3.20;99.90
3846;DHT22;1938;50.812;7.738;2024-03-23T06:10:29;3.10;99.90
3846;DHT22;1938;50.812;7.738;2024-03-23T06:12:55;3.10;99.90
3846;DHT22;1938;50.812;7.738;2024-03-23T06:15:21;3.20;99.90
3846;DHT22;1938;50.812;7.738;2024-03-23T06:17:47;3.20;99.90
3846;DHT22;1938;50.812;7.738;2024-03-23T06:20:13;3.20;99.90
3846;DHT22;1938;50.812;7.738;2024-03-23T06:22:39;3.20;99.90
3846;DHT22;1938;50.812;7.738;2024-03-23T06:25:05;3.20;99.90
3846;DHT22;1938;50.812;7.738;2024-03-23T06:27:30;3.20;99.90
3846;DHT22;1938;50.812;7.738;2024-03-23T06:29:57;3.20;99.90
3846;DHT22;1938;50.812;7.738;2024-03-23T06:32:23;3.20;99.90
3846;DHT22;1938;50.812;7.738;2024-03-23T06:34:48;3.30;99.90
3846;DHT22;1938;50.812;7.738;2024-03-23T06:37:14;3.40;99.90
3846;DHT22;1938;50.812;7.738;2024-03-23T06:39:40;3.40;99.90
3846;DHT22;1938;50.812;7.738;2024-03-23T06:42:05;3.40;99.90
3846;DHT22;1938;50.812;7.738;2024-03-23T06:44:31;3.50;99.90
3846;DHT22;1938;50.812;7.738;2024-03-23T06:46:57;3.50;99.90
3846;DHT22;1938;50.812;7.738;2024-03-23T06:49:23;3.50;99.90
3846;DHT22;1938;50.812;7.738;2024-03-23T06:51:49;3.50;99.90
3846;DHT22;1938;50.812;7.738;2024-03-23T06:54:16;3.60;99.90
3846;DHT22;1938;50.812;7.738;2024-03-23T06:56:44;3.80;99.90
3846;DHT22;1938;50.812;7.738;2024-03-23T06:59:11;4.00;99.90
3846;DHT22;1938;50.812;7.738;2024-03-23T07:01:36;4.10;99.90
3846;DHT22;1938;50.812;7.738;2024-03-23T07:04:03;4.20;99.90
3846;DHT22;1938;50.812;7.738;2024-03-23T07:06:29;4.20;99.90
3846;DHT22;1938;50.812;7.738;2024-03-23T07:08:55;4.40;99.90
3846;DHT22;1938;50.812;7.738;2024-03-23T07:11:22;4.50;99.90
3846;DHT22;1938;50.812;7.738;2024-03-23T07:13:52;4.60;99.90
3846;DHT22;1938;50.812;7.738;2024-03-23T07:16:20;4.60;99.90
3846;DHT22;1938;50.812;7.738;2024-03-23T07:18:46;4.70;99.90
3846;DHT22;1938;50.812;7.738;2024-03-23T07:21:11;4.70;99.90
3846;DHT22;1938;50.812;7.738;2024-03-23T07:23:37;4.80;99.90
3846;DHT22;1938;50.812;7.738;2024-03-23T07:26:05;4.80;99.90
3846;DHT22;1938;50.812;7.738;2024-03-23T07:28:34;4.80;99.90
3846;DHT22;1938;50.812;7.738;2024-03-23T07:31:06;4.90;99.90
3846;DHT22;1938;50.812;7.738;2024-03-23T07:33:32;5.00;99.90
3846;DHT22;1938;50.812;7.738;2024-03-23T07:35:59;4.90;99.90
3846;DHT22;1938;50.812;7.738;2024-03-23T07:38:26;5.00;99.90
3846;DHT22;1938;50.812;7.738;2024-03-23T07:40:52;5.00;99.90
3846;DHT22;1938;50.812;7.738;2024-03-23T07:43:22;5.10;99.90
3846;DHT22;1938;50.812;7.738;2024-03-23T07:45:53;5.10;99.90
3846;DHT22;1938;50.812;7.738;2024-03-23T07:48:21;5.20;99.90
3846;DHT22;1938;50.812;7.738;2024-03-23T07:51:09;5.30;99.90
3846;DHT22;1938;50.812;7.738;2024-03-23T07:53:37;5.30;99.90
3846;DHT22;1938;50.812;7.738;2024-03-23T07:56:03;5.40;99.90
3846;DHT22;1938;50.812;7.738;2024-03-23T07:58:29;5.40;99.90
3846;DHT22;1938;50.812;7.738;2024-03-23T08:00:56;5.50;99.90
3846;DHT22;1938;50.812;7.738;2024-03-23T08:03:22;5.50;99.90
3846;DHT22;1938;50.812;7.738;2024-03-23T08:05:48;5.60;99.90
3846;DHT22;1938;50.812;7.738;2024-03-23T08:08:13;5.40;92.70
3846;DHT22;1938;50.812;7.738;2024-03-23T08:10:49;5.00;99.90
3846;DHT22;1938;50.812;7.738;2024-03-23T08:13:17;5.00;99.90
3846;DHT22;1938;50.812;7.738;2024-03-23T08:15:43;4.90;99.90
3846;DHT22;1938;50.812;7.738;2024-03-23T08:18:10;5.00;99.90
3846;DHT22;1938;50.812;7.738;2024-03-23T08:20:36;5.10;99.90
3846;DHT22;1938;50.812;7.738;2024-03-23T08:23:01;5.30;99.90
3846;DHT22;1938;50.812;7.738;2024-03-23T08:25:30;5.60;99.90
3846;DHT22;1938;50.812;7.738;2024-03-23T08:27:55;5.60;99.90
3846;DHT22;1938;50.812;7.738;2024-03-23T08:30:21;5.60;99.90
3846;DHT22;1938;50.812;7.738;2024-03-23T08:32:46;5.50;99.90
3846;DHT22;1938;50.812;7.738;2024-03-23T08:35:13;5.40;98.70
3846;DHT22;1938;50.812;7.738;2024-03-23T08:37:38;5.60;99.90
3846;DHT22;1938;50.812;7.738;2024-03-23T08:40:04;6.10;99.90
3846;DHT22;1938;50.812;7.738;2024-03-23T08:42:30;6.20;1.00
3846;DHT22;1938;50.812;7.738;2024-03-23T08:44:56;6.70;1.00
3846;DHT22;1938;50.812;7.738;2024-03-23T08:47:21;7.20;99.90
3846;DHT22;1938;50.812;7.738;2024-03-23T08:49:47;7.70;99.90
3846;DHT22;1938;50.812;7.738;2024-03-23T08:52:13;7.60;99.90
3846;DHT22;1938;50.812;7.738;2024-03-23T08:54:39;7.90;99.90
3846;DHT22;1938;50.812;7.738;2024-03-23T08:57:04;8.50;93.80
3846;DHT22;1938;50.812;7.738;2024-03-23T08:59:30;8.40;1.00
3846;DHT22;1938;50.812;7.738;2024-03-23T09:01:56;7.90;1.00
3846;DHT22;1938;50.812;7.738;2024-03-23T09:04:21;7.60;1.00
3846;DHT22;1938;50.812;7.738;2024-03-23T09:06:47;7.10;99.90
3846;DHT22;1938;50.812;7.738;2024-03-23T09:09:12;6.80;99.90
3846;DHT22;1938;50.812;7.738;2024-03-23T09:11:39;6.60;1.00
3846;DHT22;1938;50.812;7.738;2024-03-23T09:14:04;6.40;37.30
3846;DHT22;1938;50.812;7.738;2024-03-23T09:16:30;6.20;1.00
3846;DHT22;1938;50.812;7.738;2024-03-23T09:18:55;6.20;99.90
3846;DHT22;1938;50.812;7.738;2024-03-23T09:21:21;6.20;1.00
3846;DHT22;1938;50.812;7.738;2024-03-23T09:23:46;6.80;1.00
3846;DHT22;1938;50.812;7.738;2024-03-23T09:26:12;7.40;99.90
3846;DHT22;1938;50.812;7.738;2024-03-23T09:28:38;7.40;99.90
3846;DHT22;1938;50.812;7.738;2024-03-23T09:31:08;7.20;32.20
3846;DHT22;1938;50.812;7.738;2024-03-23T09:33:35;7.20;99.90
3846;DHT22;1938;50.812;7.738;2024-03-23T09:36:04;7.00;99.90
3846;DHT22;1938;50.812;7.738;2024-03-23T09:38:30;6.90;99.90
3846;DHT22;1938;50.812;7.738;2024-03-23T09:40:57;7.30;34.40
3846;DHT22;1938;50.812;7.738;2024-03-23T09:43:23;7.50;1.00
3846;DHT22;1938;50.812;7.738;2024-03-23T09:45:49;7.50;99.90
3846;DHT22;1938;50.812;7.738;2024-03-23T09:48:15;7.60;99.90
3846;DHT22;1938;50.812;7.738;2024-03-23T09:50:42;8.30;99.90
3846;DHT22;1938;50.812;7.738;2024-03-23T09:53:12;8.00;1.00
3846;DHT22;1938;50.812;7.738;2024-03-23T09:55:39;8.10;1.00
3846;DHT22;1938;50.812;7.738;2024-03-23T09:58:05;7.90;1.00
3846;DHT22;1938;50.812;7.738;2024-03-23T10:00:32;8.50;99.90
3846;DHT22;1938;50.812;7.738;2024-03-23T10:03:01;8.70;99.90
3846;DHT22;1938;50.812;7.738;2024-03-23T10:05:30;8.80;99.90
3846;DHT22;1938;50.812;7.738;2024-03-23T10:08:17;9.00;99.90
3846;DHT22;1938;50.812;7.738;2024-03-23T10:10:45;8.70;99.90
3846;DHT22;1938;50.812;7.738;2024-03-23T10:13:11;8.20;99.90
3846;DHT22;1938;50.812;7.738;2024-03-23T10:15:40;7.70;99.90
3846;DHT22;1938;50.812;7.738;2024-03-23T10:18:18;7.20;99.90
3846;DHT22;1938;50.812;7.738;2024-03-23T10:20:52;6.90;1.00
3846;DHT22;1938;50.812;7.738;2024-03-23T10:23:25;7.10;99.90
3846;DHT22;1938;50.812;7.738;2024-03-23T10:25:51;7.80;1.00
3846;DHT22;1938;50.812;7.738;2024-03-23T10:28:16;8.70;1.00
3846;DHT22;1938;50.812;7.738;2024-03-23T10:30:42;9.50;1.00
3846;DHT22;1938;50.812;7.738;2024-03-23T10:33:11;10.00;99.90
3846;DHT22;1938;50.812;7.738;2024-03-23T10:35:37;10.20;99.90
3846;DHT22;1938;50.812;7.738;2024-03-23T10:38:07;10.00;1.00
3846;DHT22;1938;50.812;7.738;2024-03-23T10:40:36;10.00;1.00
3846;DHT22;1938;50.812;7.738;2024-03-23T10:43:03;10.00;1.00
3846;DHT22;1938;50.812;7.738;2024-03-23T10:45:29;9.60;1.00
3846;DHT22;1938;50.812;7.738;2024-03-23T10:47:55;9.30;1.00
3846;DHT22;1938;50.812;7.738;2024-03-23T10:50:21;9.30;1.00
3846;DHT22;1938;50.812;7.738;2024-03-23T10:52:47;9.30;17.80
3846;DHT22;1938;50.812;7.738;2024-03-23T10:55:18;9.60;17.40
3846;DHT22;1938;50.812;7.738;2024-03-23T10:57:52;9.90;14.60
3846;DHT22;1938;50.812;7.738;2024-03-23T11:00:19;10.10;1.00
3846;DHT22;1938;50.812;7.738;2024-03-23T11:02:48;10.40;37.50
3846;DHT22;1938;50.812;7.738;2024-03-23T11:07:52;10.50;1.00
3846;DHT22;1938;50.812;7.738;2024-03-23T11:10:29;10.30;1.00
3846;DHT22;1938;50.812;7.738;2024-03-23T11:12:56;10.00;1.00
3846;DHT22;1938;50.812;7.738;2024-03-23T11:15:23;9.90;1.00
3846;DHT22;1938;50.812;7.738;2024-03-23T11:18:05;9.70;1.00
3846;DHT22;1938;50.812;7.738;2024-03-23T11:20:32;9.50;1.00
3846;DHT22;1938;50.812;7.738;2024-03-23T11:22:58;9.20;1.00
3846;DHT22;1938;50.812;7.738;2024-03-23T11:25:29;8.50;1.00
3846;DHT22;1938;50.812;7.738;2024-03-23T11:27:55;7.90;1.00
3846;DHT22;1938;50.812;7.738;2024-03-23T11:30:27;7.60;1.00
3846;DHT22;1938;50.812;7.738;2024-03-23T11:32:57;7.40;50.50
3846;DHT22;1938;50.812;7.738;2024-03-23T11:38:04;7.10;99.90
3846;DHT22;1938;50.812;7.738;2024-03-23T11:40:29;6.70;99.90
3846;DHT22;1938;50.812;7.738;2024-03-23T11:43:00;6.90;55.10
3846;DHT22;1938;50.812;7.738;2024-03-23T11:45:26;7.10;1.00
3846;DHT22;1938;50.812;7.738;2024-03-23T11:50:29;7.40;99.90
3846;DHT22;1938;50.812;7.738;2024-03-23T11:56:00;7.50;99.90
3846;DHT22;1938;50.812;7.738;2024-03-23T11:58:28;7.80;99.90
3846;DHT22;1938;50.812;7.738;2024-03-23T12:00:58;7.80;99.90
3846;DHT22;1938;50.812;7.738;2024-03-23T12:03:26;7.80;99.90
3846;DHT22;1938;50.812;7.738;2024-03-23T12:05:54;8.10;99.90
3846;DHT22;1938;50.812;7.738;2024-03-23T12:08:30;8.30;99.90
3846;DHT22;1938;50.812;7.738;2024-03-23T12:11:09;8.50;90.90
3846;DHT22;1938;50.812;7.738;2024-03-23T12:13:37;8.50;7.80
3846;DHT22;1938;50.812;7.738;2024-03-23T12:16:19;8.20;1.00
3846;DHT22;1938;50.812;7.738;2024-03-23T12:18:49;7.70;1.00
3846;DHT22;1938;50.812;7.738;2024-03-23T12:21:16;7.40;1.00
3846;DHT22;1938;50.812;7.738;2024-03-23T12:23:43;7.10;1.00
3846;DHT22;1938;50.812;7.738;2024-03-23T12:26:14;7.00;1.00
3846;DHT22;1938;50.812;7.738;2024-03-23T12:28:39;6.90;20.40
3846;DHT22;1938;50.812;7.738;2024-03-23T12:31:05;6.90;42.10
3846;DHT22;1938;50.812;7.738;2024-03-23T12:33:31;6.80;54.80
3846;DHT22;1938;50.812;7.738;2024-03-23T12:35:56;6.60;99.90
3846;DHT22;1938;50.812;7.738;2024-03-23T12:38:22;6.20;99.90
3846;DHT22;1938;50.812;7.738;2024-03-23T12:40:51;5.90;99.90
3846;DHT22;1938;50.812;7.738;2024-03-23T12:43:17;5.50;99.90
3846;DHT22;1938;50.812;7.738;2024-03-23T12:45:49;5.20;1.00
3846;DHT22;1938;50.812;7.738;2024-03-23T12:48:15;5.10;99.90
3846;DHT22;1938;50.812;7.738;2024-03-23T12:50:40;5.00;49.90
3846;DHT22;1938;50.812;7.738;2024-03-23T12:53:08;4.90;31.70
3846;DHT22;1938;50.812;7.738;2024-03-23T12:55:37;4.80;99.90
3846;DHT22;1938;50.812;7.738;2024-03-23T12:58:03;4.60;99.90
3846;DHT22;1938;50.812;7.738;2024-03-23T13:00:28;4.60;99.90
3846;DHT22;1938;50.812;7.738;2024-03-23T13:02:54;4.60;99.90
3846;DHT22;1938;50.812;7.738;2024-03-23T13:05:20;4.80;1.00
3846;DHT22;1938;50.812;7.738;2024-03-23T13:07:45;4.90;99.90
3846;DHT22;1938;50.812;7.738;2024-03-23T13:10:11;4.80;1.00
3846;DHT22;1938;50.812;7.738;2024-03-23T13:12:36;4.90;2.00
3846;DHT22;1938;50.812;7.738;2024-03-23T13:15:02;5.00;1.00
3846;DHT22;1938;50.812;7.738;2024-03-23T13:17:28;5.00;99.90
3846;DHT22;1938;50.812;7.738;2024-03-23T13:19:54;4.70;99.90
3846;DHT22;1938;50.812;7.738;2024-03-23T13:22:21;4.40;1.00
3846;DHT22;1938;50.812;7.738;2024-03-23T13:24:47;4.00;36.40
3846;DHT22;1938;50.812;7.738;2024-03-23T13:27:13;3.70;99.90
3846;DHT22;1938;50.812;7.738;2024-03-23T13:29:38;3.60;1.00
3846;DHT22;1938;50.812;7.738;2024-03-23T13:32:04;3.50;1.00
3846;DHT22;1938;50.812;7.738;2024-03-23T13:34:30;3.40;1.00
3846;DHT22;1938;50.812;7.738;2024-03-23T13:36:55;3.30;1.00
3846;DHT22;1938;50.812;7.738;2024-03-23T13:39:24;3.30;99.90
3846;DHT22;1938;50.812;7.738;2024-03-23T13:41:51;3.60;19.80
3846;DHT22;1938;50.812;7.738;2024-03-23T13:44:16;4.10;99.90
3846;DHT22;1938;50.812;7.738;2024-03-23T13:46:42;4.40;75.90
3846;DHT22;1938;50.812;7.738;2024-03-23T13:51:46;4.70;99.90
3846;DHT22;1938;50.812;7.738;2024-03-23T13:54:13;4.90;1.00
3846;DHT22;1938;50.812;7.738;2024-03-23T13:56:39;5.20;1.00
3846;DHT22;1938;50.812;7.738;2024-03-23T13:59:05;5.40;1.00
3846;DHT22;1938;50.812;7.738;2024-03-23T14:01:30;5.70;5.80
3846;DHT22;1938;50.812;7.738;2024-03-23T14:03:58;5.90;1.00
3846;DHT22;1938;50.812;7.738;2024-03-23T14:06:23;6.20;99.90
3846;DHT22;1938;50.812;7.738;2024-03-23T14:08:49;6.00;99.90
3846;DHT22;1938;50.812;7.738;2024-03-23T14:11:18;6.00;96.10
3846;DHT22;1938;50.812;7.738;2024-03-23T14:13:44;6.20;1.00
3846;DHT22;1938;50.812;7.738;2024-03-23T14:16:10;6.50;1.00
3846;DHT22;1938;50.812;7.738;2024-03-23T14:18:35;6.90;99.90
3846;DHT22;1938;50.812;7.738;2024-03-23T14:21:01;7.10;99.90
3846;DHT22;1938;50.812;7.738;2024-03-23T14:23:28;7.10;99.90
3846;DHT22;1938;50.812;7.738;2024-03-23T14:26:00;7.10;99.90
3846;DHT22;1938;50.812;7.738;2024-03-23T14:28:25;7.20;95.50
3846;DHT22;1938;50.812;7.738;2024-03-23T14:30:52;7.20;1.00
3846;DHT22;1938;50.812;7.738;2024-03-23T14:33:21;7.30;99.90
3846;DHT22;1938;50.812;7.738;2024-03-23T14:35:57;7.50;99.90
3846;DHT22;1938;50.812;7.738;2024-03-23T14:38:23;7.60;99.90
3846;DHT22;1938;50.812;7.738;2024-03-23T14:40:48;7.40;99.90
3846;DHT22;1938;50.812;7.738;2024-03-23T14:43:14;7.20;31.10
3846;DHT22;1938;50.812;7.738;2024-03-23T14:46:10;7.00;22.90
3846;DHT22;1938;50.812;7.738;2024-03-23T14:48:37;6.80;81.40
3846;DHT22;1938;50.812;7.738;2024-03-23T14:51:03;6.70;43.20
3846;DHT22;1938;50.812;7.738;2024-03-23T14:53:33;6.60;63.70
3846;DHT22;1938;50.812;7.738;2024-03-23T14:56:00;6.50;88.30
3846;DHT22;1938;50.812;7.738;2024-03-23T14:58:26;6.40;26.10
3846;DHT22;1938;50.812;7.738;2024-03-23T15:00:52;6.50;99.90
3846;DHT22;1938;50.812;7.738;2024-03-23T15:03:18;6.50;99.90
3846;DHT22;1938;50.812;7.738;2024-03-23T15:05:57;6.50;99.90
3846;DHT22;1938;50.812;7.738;2024-03-23T15:08:23;6.40;99.90
3846;DHT22;1938;50.812;7.738;2024-03-23T15:10:49;6.20;99.90
3846;DHT22;1938;50.812;7.738;2024-03-23T15:13:15;5.80;99.90
3846;DHT22;1938;50.812;7.738;2024-03-23T15:15:41;5.50;1.00
3846;DHT22;1938;50.812;7.738;2024-03-23T15:18:11;5.20;1.00
3846;DHT22;1938;50.812;7.738;2024-03-23T15:20:38;5.00;77.70
3846;DHT22;1938;50.812;7.738;2024-03-23T15:23:04;4.80;99.90
3846;DHT22;1938;50.812;7.738;2024-03-23T15:25:30;4.50;95.50
3846;DHT22;1938;50.812;7.738;2024-03-23T15:27:56;4.40;99.90
3846;DHT22;1938;50.812;7.738;2024-03-23T15:30:23;4.30;79.00
3846;DHT22;1938;50.812;7.738;2024-03-23T15:32:48;4.10;99.90
3846;DHT22;1938;50.812;7.738;2024-03-23T15:35:14;3.90;99.90
3846;DHT22;1938;50.812;7.738;2024-03-23T15:37:39;3.90;99.90
3846;DHT22;1938;50.812;7.738;2024-03-23T15:40:06;3.80;99.90
3846;DHT22;1938;50.812;7.738;2024-03-23T15:42:32;3.80;1.00
3846;DHT22;1938;50.812;7.738;2024-03-23T15:44:58;3.80;99.90
3846;DHT22;1938;50.812;7.738;2024-03-23T15:47:23;3.80;99.90
3846;DHT22;1938;50.812;7.738;2024-03-23T15:49:49;3.90;99.90
3846;DHT22;1938;50.812;7.738;2024-03-23T15:52:16;3.90;5.70
3846;DHT22;1938;50.812;7.738;2024-03-23T15:54:43;3.90;99.90
3846;DHT22;1938;50.812;7.738;2024-03-23T15:57:08;4.00;1.00
3846;DHT22;1938;50.812;7.738;2024-03-23T15:59:34;3.90;99.90
3846;DHT22;1938;50.812;7.738;2024-03-23T16:02:01;3.50;99.90
3846;DHT22;1938;50.812;7.738;2024-03-23T16:04:29;3.30;1.00
3846;DHT22;1938;50.812;7.738;2024-03-23T16:06:55;3.30;1.00
3846;DHT22;1938;50.812;7.738;2024-03-23T16:09:20;3.20;99.90
3846;DHT22;1938;50.812;7.738;2024-03-23T16:11:46;3.20;99.90
3846;DHT22;1938;50.812;7.738;2024-03-23T16:14:11;3.20;99.90
3846;DHT22;1938;50.812;7.738;2024-03-23T16:16:37;3.00;99.90
3846;DHT22;1938;50.812;7.738;2024-03-23T16:19:03;3.00;27.60
3846;DHT22;1938;50.812;7.738;2024-03-23T16:21:29;3.00;99.90
3846;DHT22;1938;50.812;7.738;2024-03-23T16:23:54;3.10;1.00
3846;DHT22;1938;50.812;7.738;2024-03-23T16:26:20;3.30;1.00
3846;DHT22;1938;50.812;7.738;2024-03-23T16:28:45;3.40;1.00
3846;DHT22;1938;50.812;7.738;2024-03-23T16:31:13;3.60;1.00
3846;DHT22;1938;50.812;7.738;2024-03-23T16:33:40;3.70;99.90
3846;DHT22;1938;50.812;7.738;2024-03-23T16:36:07;4.00;1.00
3846;DHT22;1938;50.812;7.738;2024-03-23T16:38:41;4.10;99.90
3846;DHT22;1938;50.812;7.738;2024-03-23T16:41:08;4.20;1.00
3846;DHT22;1938;50.812;7.738;2024-03-23T16:43:34;4.20;21.50
3846;DHT22;1938;50.812;7.738;2024-03-23T16:46:05;4.40;1.00
3846;DHT22;1938;50.812;7.738;2024-03-23T16:48:32;4.40;1.00
3846;DHT22;1938;50.812;7.738;2024-03-23T16:50:59;4.60;99.90
3846;DHT22;1938;50.812;7.738;2024-03-23T16:53:25;4.60;99.90
3846;DHT22;1938;50.812;7.738;2024-03-23T16:56:05;4.60;6.40
3846;DHT22;1938;50.812;7.738;2024-03-23T16:58:37;4.60;1.00
3846;DHT22;1938;50.812;7.738;2024-03-23T17:01:12;4.60;99.90
3846;DHT22;1938;50.812;7.738;2024-03-23T17:03:48;4.60;99.90
3846;DHT22;1938;50.812;7.738;2024-03-23T17:06:15;4.60;46.60
3846;DHT22;1938;50.812;7.738;2024-03-23T17:08:42;4.50;8.10
3846;DHT22;1938;50.812;7.738;2024-03-23T17:11:09;4.50;35.40
3846;DHT22;1938;50.812;7.738;2024-03-23T17:13:35;4.50;51.30
3846;DHT22;1938;50.812;7.738;2024-03-23T17:16:02;4.50;99.90
3846;DHT22;1938;50.812;7.738;2024-03-23T17:18:27;4.50;99.90
3846;DHT22;1938;50.812;7.738;2024-03-23T17:20:53;4.50;99.90
3846;DHT22;1938;50.812;7.738;2024-03-23T17:23:25;4.50;99.90
3846;DHT22;1938;50.812;7.738;2024-03-23T17:25:51;4.50;99.90